Time;durP1;ratioP1;P1;durP2;ratioP2;P2;SDS_P1;SDS_P2;PMS_P1;PMS_P2;Temp;Humidity;BMP_temperature;BMP_pressure;BME280_temperature;BME280_humidity;BME280_pressure;Samples;Min_cycle;Max_cycle;Signal;HPM_P1;HPM_P2
2021/04/16 00:00:55;;;;;;;0.80;0.80;;;0.80;99.90;;;0.98;100.00;-20708.38;5074335;28;20192;-68
2021/04/16 00:03:23;;;;;;;0.80;0.70;;;0.70;99.90;;;0.89;100.00;-20705.88;5073187;28;20660;-67
2021/04/16 00:05:52;;;;;;;0.80;0.70;;;0.70;99.90;;;0.91;100.00;-20706.44;5073515;28;20184;-68
2021/04/16 00:08:24;;;;;;;0.80;0.70;;;0.80;99.90;;;0.96;100.00;-20707.81;5075965;28;20603;-67
2021/04/16 00:10:55;;;;;;;0.80;0.80;;;0.70;99.90;;;0.97;100.00;-20708.09;5073079;28;20203;-67
2021/04/16 00:13:24;;;;;;;0.70;0.70;;;0.80;99.90;;;1.00;100.00;-20708.81;5073166;28;20262;-67
2021/04/16 00:15:52;;;;;;;0.80;0.73;;;0.80;99.90;;;0.91;100.00;-20706.44;5073209;28;20188;-66
2021/04/16 00:18:23;;;;;;;0.80;0.70;;;0.80;99.90;;;0.92;100.00;-20706.84;5072735;28;20173;-67
2021/04/16 00:20:51;;;;;;;0.70;0.60;;;0.80;99.90;;;1.01;100.00;-20709.09;5073287;28;20621;-67
2021/04/16 00:23:19;;;;;;;0.80;0.70;;;0.80;99.90;;;1.02;100.00;-20709.38;5072994;28;20383;-67
2021/04/16 00:25:47;;;;;;;0.70;0.60;;;0.90;99.90;;;1.10;100.00;-20711.59;5072653;28;20197;-67
2021/04/16 00:28:14;;;;;;;0.70;0.60;;;1.00;99.90;;;1.12;100.00;-20712.16;5088348;28;20684;-66
2021/04/16 00:30:47;;;;;;;0.70;0.60;;;1.00;99.90;;;1.16;100.00;-20713.28;5084825;28;20648;-67
2021/04/16 00:33:16;;;;;;;0.70;0.60;;;0.90;99.90;;;1.16;100.00;-20713.41;5085330;28;20192;-67
2021/04/16 00:35:43;;;;;;;0.80;0.70;;;1.00;99.90;;;1.18;100.00;-20713.97;5054917;28;20193;-66
2021/04/16 00:38:12;;;;;;;0.80;0.80;;;1.00;99.90;;;1.39;100.00;-20719.72;5073148;28;20181;-67
2021/04/16 00:40:47;;;;;;;0.70;0.60;;;1.10;99.90;;;1.48;100.00;-20722.09;5071278;28;20193;-66
2021/04/16 00:43:19;;;;;;;0.70;0.65;;;1.20;99.90;;;1.48;100.00;-20722.09;5081303;28;20298;-66
2021/04/16 00:45:47;;;;;;;0.77;0.70;;;1.30;99.90;;;1.49;100.00;-20722.22;5071316;28;20197;-68
2021/04/16 00:48:25;;;;;;;0.80;0.80;;;1.30;99.90;;;1.44;100.00;-20721.09;5071309;28;20208;-67
2021/04/16 00:50:56;;;;;;;0.73;0.70;;;1.20;99.90;;;1.35;100.00;-20718.44;5091021;28;20172;-66
2021/04/16 00:53:25;;;;;;;0.70;0.60;;;1.10;99.90;;;1.33;100.00;-20718.03;5078624;28;20221;-66
2021/04/16 00:55:53;;;;;;;0.80;0.80;;;1.10;99.90;;;1.30;100.00;-20717.19;5076156;28;20543;-66
2021/04/16 00:58:25;;;;;;;0.70;0.70;;;1.10;99.90;;;1.17;100.00;-20713.56;5094372;28;20228;-66
2021/04/16 01:00:55;;;;;;;0.70;0.70;;;1.10;99.90;;;1.12;100.00;-20712.31;5093721;28;20200;-67
2021/04/16 01:03:23;;;;;;;0.70;0.60;;;1.00;99.90;;;1.09;100.00;-20711.31;5094506;28;20188;-67
2021/04/16 01:05:53;;;;;;;0.70;0.60;;;1.00;99.90;;;1.09;100.00;-20711.31;5076030;28;20252;-67
2021/04/16 01:08:21;;;;;;;0.80;0.70;;;0.90;99.90;;;1.03;100.00;-20709.78;5076058;28;20223;-68
2021/04/16 01:10:51;;;;;;;0.70;0.60;;;0.90;99.90;;;1.14;100.00;-20712.84;5068708;28;20674;-67
2021/04/16 01:13:22;;;;;;;0.70;0.65;;;0.90;99.90;;;1.11;100.00;-20711.88;5095079;28;20204;-67
2021/04/16 01:15:55;;;;;;;0.70;0.60;;;1.00;99.90;;;1.15;100.00;-20713.00;5090356;28;20177;-67
2021/04/16 01:18:27;;;;;;;0.70;0.60;;;1.00;99.90;;;1.03;100.00;-20709.63;5083589;28;20184;-67
2021/04/16 01:20:58;;;;;;;0.70;0.60;;;0.90;99.90;;;0.98;100.00;-20708.25;5096377;28;20242;-67
2021/04/16 01:23:40;;;;;;;0.70;0.60;;;0.80;99.90;;;0.91;100.00;-20706.44;5094760;28;20559;-68
2021/04/16 01:26:11;;;;;;;0.70;0.65;;;0.90;99.90;;;0.90;100.00;-20706.28;5094852;28;20198;-67
2021/04/16 01:28:38;;;;;;;0.70;0.60;;;0.80;99.90;;;0.86;100.00;-20705.03;5090493;28;20213;-67
2021/04/16 01:31:10;;;;;;;0.70;0.65;;;0.70;99.90;;;0.85;100.00;-20704.88;5091124;28;20189;-70
2021/04/16 01:33:38;;;;;;;0.70;0.60;;;0.80;99.90;;;0.80;100.00;-20703.50;5093828;28;20177;-67
2021/04/16 01:36:12;;;;;;;0.80;0.70;;;0.70;99.90;;;0.82;100.00;-20704.06;5075042;28;20534;-66
2021/04/16 01:38:40;;;;;;;0.70;0.70;;;0.70;99.90;;;0.85;100.00;-20704.75;5082198;28;20180;-66
2021/04/16 01:41:10;;;;;;;0.70;0.60;;;0.60;99.90;;;0.80;100.00;-20703.50;5093004;28;20228;-68
2021/04/16 01:43:40;;;;;;;0.70;0.68;;;0.70;99.90;;;0.80;100.00;-20703.34;5094359;28;20212;-67
2021/04/16 01:46:12;;;;;;;0.70;0.60;;;0.70;99.90;;;0.79;100.00;-20703.22;5089163;28;20917;-67
2021/04/16 01:48:48;;;;;;;0.80;0.70;;;0.60;99.90;;;0.77;100.00;-20702.66;5084196;28;20200;-68
2021/04/16 01:51:21;;;;;;;0.70;0.70;;;0.50;99.90;;;0.77;100.00;-20702.50;5085615;28;20662;-66
2021/04/16 01:53:48;;;;;;;0.77;0.70;;;0.60;99.90;;;0.90;100.00;-20706.28;5111696;28;20176;-67
2021/04/16 01:56:16;;;;;;;0.70;0.63;;;0.70;99.90;;;0.88;100.00;-20705.72;5111460;28;20196;-67
2021/04/16 01:58:43;;;;;;;0.70;0.60;;;0.60;99.90;;;0.90;100.00;-20706.28;5090402;28;20208;-67
2021/04/16 02:01:11;;;;;;;0.80;0.70;;;0.70;99.90;;;0.94;100.00;-20707.41;5088945;28;20192;-67
2021/04/16 02:03:38;;;;;;;0.70;0.60;;;0.70;99.90;;;0.90;100.00;-20706.28;5100105;28;20189;-67
2021/04/16 02:06:05;;;;;;;0.70;0.70;;;0.70;99.90;;;0.93;100.00;-20707.13;5070617;28;20189;-67
2021/04/16 02:08:32;;;;;;;0.70;0.60;;;0.70;99.90;;;0.96;100.00;-20707.97;5093372;28;20230;-67
2021/04/16 02:10:59;;;;;;;0.70;0.60;;;0.80;99.90;;;1.05;100.00;-20710.19;5095370;28;20180;-67
2021/04/16 02:13:27;;;;;;;0.70;0.60;;;0.80;99.90;;;1.08;100.00;-20711.03;5094111;28;20220;-67
2021/04/16 02:15:55;;;;;;;0.80;0.70;;;0.90;99.90;;;1.17;100.00;-20713.56;5094962;28;20181;-67
2021/04/16 02:18:22;;;;;;;0.70;0.70;;;0.90;99.90;;;1.29;100.00;-20716.91;5093608;28;20584;-69
2021/04/16 02:20:49;;;;;;;0.80;0.70;;;0.90;99.90;;;1.38;100.00;-20719.44;5073271;28;20196;-67
2021/04/16 02:23:16;;;;;;;0.80;0.70;;;1.00;99.90;;;1.49;100.00;-20722.22;5074990;28;20184;-67
2021/04/16 02:25:43;;;;;;;0.80;0.80;;;1.10;99.90;;;1.61;100.00;-20725.56;5073537;28;20242;-67
2021/04/16 02:28:10;;;;;;;0.90;0.90;;;1.20;99.90;;;1.66;100.00;-20727.13;5075576;28;20562;-67
2021/04/16 02:30:38;;;;;;;0.70;0.60;;;1.30;99.90;;;1.72;100.00;-20728.66;5074344;28;20549;-67
2021/04/16 02:33:06;;;;;;;0.70;0.60;;;1.30;99.90;;;1.81;100.00;-20731.16;5080402;28;20238;-68
2021/04/16 02:35:33;;;;;;;0.73;0.68;;;1.40;99.90;;;1.89;100.00;-20733.41;5092464;28;20283;-67
2021/04/16 02:38:00;;;;;;;0.70;0.60;;;1.40;99.90;;;1.94;100.00;-20734.78;5094763;28;20210;-67
2021/04/16 02:40:28;;;;;;;0.70;0.70;;;1.50;99.90;;;2.06;100.00;-20738.00;5093996;28;20241;-67
2021/04/16 02:42:55;;;;;;;0.70;0.60;;;1.60;99.90;;;2.11;100.00;-20739.28;5094734;28;20603;-67
2021/04/16 02:45:25;;;;;;;0.70;0.63;;;1.60;99.90;;;2.14;100.00;-20740.09;5089419;28;20226;-67
2021/04/16 02:47:54;;;;;;;0.70;0.70;;;1.70;99.90;;;2.20;100.00;-20741.78;5073069;28;20533;-66
2021/04/16 02:50:28;;;;;;;0.73;0.70;;;1.70;99.90;;;2.30;100.00;-20744.44;5090336;28;20199;-66
2021/04/16 02:52:54;;;;;;;0.70;0.60;;;1.80;99.90;;;2.36;100.00;-20746.25;5094294;28;20233;-68
2021/04/16 02:55:21;;;;;;;0.70;0.60;;;1.90;99.90;;;2.45;100.00;-20748.63;5092248;28;20677;-66
2021/04/16 02:57:48;;;;;;;0.70;0.60;;;1.90;99.90;;;2.52;100.00;-20750.44;5076351;28;20688;-66
2021/04/16 03:00:21;;;;;;;0.70;0.68;;;2.00;99.90;;;2.60;100.00;-20752.66;5093164;28;20254;-66
2021/04/16 03:02:47;;;;;;;0.70;0.70;;;2.10;99.90;;;2.65;100.00;-20754.06;5090705;28;20204;-67
2021/04/16 03:05:16;;;;;;;0.70;0.60;;;2.10;99.90;;;2.66;100.00;-20754.50;5086868;28;20218;-66
2021/04/16 03:07:43;;;;;;;0.70;0.60;;;2.20;99.90;;;2.71;100.00;-20755.59;5094006;28;20676;-66
2021/04/16 03:10:14;;;;;;;0.70;0.70;;;2.20;99.90;;;2.77;100.00;-20757.41;5093715;28;20233;-66
2021/04/16 03:12:41;;;;;;;0.70;0.60;;;2.30;99.90;;;2.74;100.00;-20756.44;5093378;28;20255;-67
2021/04/16 03:15:10;;;;;;;0.70;0.60;;;2.30;99.90;;;2.83;100.00;-20759.09;5093627;28;20705;-67
2021/04/16 03:17:37;;;;;;;0.70;0.60;;;2.30;99.90;;;2.92;100.00;-20761.47;5093764;28;20210;-67
2021/04/16 03:20:07;;;;;;;0.70;0.60;;;2.40;99.90;;;3.06;100.00;-20765.22;5092157;28;20271;-67
2021/04/16 03:22:35;;;;;;;0.70;0.60;;;2.60;99.90;;;3.09;100.00;-20766.22;5094287;28;20177;-67
2021/04/16 03:25:04;;;;;;;0.70;0.60;;;2.60;99.90;;;3.22;100.00;-20769.69;5091975;28;20192;-67
2021/04/16 03:27:32;;;;;;;0.80;0.70;;;2.70;99.90;;;3.25;100.00;-20770.53;5094264;28;20208;-67
2021/04/16 03:29:59;;;;;;;0.70;0.60;;;2.70;99.90;;;3.25;100.00;-20770.53;5085630;28;20200;-66
2021/04/16 03:32:28;;;;;;;0.80;0.70;;;2.70;99.90;;;3.21;100.00;-20769.41;5073724;28;20185;-68
2021/04/16 03:34:55;;;;;;;0.70;0.60;;;2.70;99.90;;;3.21;100.00;-20769.28;5091673;28;20197;-66
2021/04/16 03:37:22;;;;;;;1.10;1.00;;;2.70;99.90;;;3.23;100.00;-20769.84;5073155;28;20168;-67
2021/04/16 03:39:50;;;;;;;0.70;0.60;;;2.70;99.90;;;3.26;100.00;-20770.81;5073400;28;20238;-67
2021/04/16 03:42:17;;;;;;;0.70;0.60;;;2.80;99.90;;;3.27;100.00;-20771.09;5072546;28;20216;-67
2021/04/16 03:44:44;;;;;;;0.70;0.60;;;2.80;99.90;;;3.30;100.00;-20771.94;5073390;28;20589;-66
2021/04/16 03:47:11;;;;;;;0.70;0.60;;;2.80;99.90;;;3.32;100.00;-20772.50;5074313;28;20200;-67
2021/04/16 03:49:39;;;;;;;0.70;0.63;;;2.80;99.90;;;3.41;100.00;-20774.72;5072693;28;20209;-67
2021/04/16 03:52:07;;;;;;;0.70;0.60;;;2.90;99.90;;;3.47;100.00;-20776.53;5071736;28;20681;-66
2021/04/16 03:54:34;;;;;;;0.70;0.60;;;3.00;99.90;;;3.57;100.00;-20779.19;5073358;28;20204;-66
2021/04/16 03:57:03;;;;;;;1.75;1.65;;;3.00;99.90;;;3.62;100.00;-20780.72;5072774;28;20208;-67
2021/04/16 03:59:30;;;;;;;1.10;1.00;;;3.10;99.90;;;3.72;100.00;-20783.22;5073245;28;20272;-66
2021/04/16 04:01:57;;;;;;;0.70;0.60;;;3.20;99.90;;;3.77;100.00;-20784.63;5088651;28;20192;-66
2021/04/16 04:04:24;;;;;;;0.70;0.60;;;3.20;99.90;;;3.77;100.00;-20784.75;5091168;28;20667;-66
2021/04/16 04:06:51;;;;;;;0.70;0.60;;;3.30;99.90;;;3.73;100.00;-20783.66;5075040;28;20242;-67
2021/04/16 04:09:20;;;;;;;0.70;0.70;;;3.30;99.90;;;3.69;100.00;-20782.53;5073097;28;20208;-67
2021/04/16 04:11:50;;;;;;;0.70;0.60;;;3.20;99.90;;;3.60;100.00;-20780.00;5073102;28;20254;-67
2021/04/16 04:14:20;;;;;;;0.70;0.60;;;3.20;99.90;;;3.50;100.00;-20777.22;5072783;28;20192;-67
2021/04/16 04:16:52;;;;;;;0.70;0.60;;;3.00;99.90;;;3.40;100.00;-20774.56;5073161;28;20185;-67
2021/04/16 04:19:22;;;;;;;0.80;0.70;;;3.00;99.90;;;3.33;100.00;-20772.63;5080431;28;20633;-66
2021/04/16 04:21:50;;;;;;;0.70;0.60;;;2.90;99.90;;;3.30;100.00;-20771.78;5091573;28;20192;-66
2021/04/16 04:24:17;;;;;;;0.70;0.60;;;2.90;99.90;;;3.30;100.00;-20771.94;5093163;28;20180;-67
2021/04/16 04:26:45;;;;;;;0.70;0.68;;;2.90;99.90;;;3.29;100.00;-20771.66;5093027;28;20208;-67
2021/04/16 04:29:15;;;;;;;0.80;0.80;;;2.90;99.90;;;3.25;100.00;-20770.53;5077021;28;20208;-68
2021/04/16 04:31:47;;;;;;;0.80;0.70;;;2.80;99.90;;;3.33;100.00;-20772.75;5076867;28;20185;-66
2021/04/16 04:34:16;;;;;;;0.70;0.60;;;2.90;99.90;;;3.42;100.00;-20775.00;5082663;28;20207;-66
2021/04/16 04:36:43;;;;;;;0.70;0.60;;;3.00;99.90;;;3.39;100.00;-20774.44;5076807;28;20223;-67
2021/04/16 04:39:12;;;;;;;0.70;0.60;;;3.00;99.90;;;3.41;100.00;-20774.72;5079373;28;20202;-66
2021/04/16 04:41:40;;;;;;;0.70;0.60;;;3.00;99.90;;;3.40;100.00;-20774.56;5081255;28;20240;-67
2021/04/16 04:44:08;;;;;;;0.70;0.60;;;3.00;99.90;;;3.33;100.00;-20772.75;5087187;28;20544;-67
2021/04/16 04:46:36;;;;;;;0.80;0.80;;;3.00;99.90;;;3.28;100.00;-20771.38;5095609;28;20184;-67
2021/04/16 04:49:06;;;;;;;0.70;0.60;;;2.90;99.90;;;3.18;100.00;-20768.59;5091635;28;20597;-69
2021/04/16 04:51:33;;;;;;;0.70;0.60;;;2.80;99.90;;;3.06;100.00;-20765.22;5094507;28;20226;-66
2021/04/16 04:54:00;;;;;;;0.70;0.60;;;2.70;99.90;;;3.02;100.00;-20764.13;5097102;28;20251;-67
2021/04/16 04:56:27;;;;;;;6.78;1.75;;;2.60;99.90;;;2.90;100.00;-20761.03;5090998;28;20188;-66
2021/04/16 04:58:54;;;;;;;0.73;0.63;;;2.60;99.90;;;2.83;100.00;-20759.09;5089674;28;20197;-68
2021/04/16 05:01:22;;;;;;;0.75;0.68;;;2.50;99.90;;;2.81;100.00;-20758.41;5078421;28;20177;-67
2021/04/16 05:03:49;;;;;;;0.70;0.60;;;2.40;99.90;;;2.77;100.00;-20757.41;5081197;28;20192;-66
2021/04/16 05:06:17;;;;;;;0.70;0.60;;;2.40;99.90;;;2.78;100.00;-20757.56;5095430;28;20270;-66
2021/04/16 05:08:44;;;;;;;0.70;0.60;;;2.30;99.90;;;2.71;100.00;-20755.75;5096391;28;20603;-67
2021/04/16 05:11:11;;;;;;;0.70;0.70;;;2.30;99.90;;;2.66;100.00;-20754.34;5079202;28;20193;-67
2021/04/16 05:13:38;;;;;;;0.70;0.70;;;2.30;99.90;;;2.68;100.00;-20754.91;5077301;28;20218;-65
2021/04/16 05:16:08;;;;;;;0.70;0.60;;;2.30;99.90;;;2.71;100.00;-20755.75;5076143;28;20237;-66
2021/04/16 05:18:37;;;;;;;0.70;0.63;;;2.40;99.90;;;2.70;100.00;-20755.47;5076208;28;20193;-66
2021/04/16 05:21:04;;;;;;;0.70;0.60;;;2.30;99.90;;;2.76;100.00;-20757.13;5075467;28;20722;-66
2021/04/16 05:23:32;;;;;;;0.70;0.60;;;2.30;99.90;;;2.87;100.00;-20760.22;5077775;28;20602;-67
2021/04/16 05:26:00;;;;;;;0.70;0.60;;;2.40;99.90;;;2.95;100.00;-20762.16;5073020;28;20262;-66
2021/04/16 05:28:27;;;;;;;0.70;0.60;;;2.50;99.90;;;3.18;100.00;-20768.44;5085622;28;20231;-67
2021/04/16 05:30:54;;;;;;;0.70;0.60;;;2.60;99.90;;;3.36;100.00;-20773.59;5085060;28;20669;-67
2021/04/16 05:33:21;;;;;;;0.70;0.60;;;2.90;99.90;;;3.58;100.00;-20779.47;5075740;28;20656;-66
2021/04/16 05:35:48;;;;;;;0.70;0.70;;;3.00;99.90;;;3.87;100.00;-20787.41;5075389;28;20184;-67
2021/04/16 05:38:15;;;;;;;0.70;0.60;;;3.20;99.90;;;4.03;100.00;-20791.88;5075631;28;20566;-68
2021/04/16 05:40:43;;;;;;;0.70;0.60;;;3.40;99.90;;;4.18;100.00;-20795.78;5074286;28;20181;-66
2021/04/16 05:43:11;;;;;;;0.80;0.70;;;3.40;99.90;;;4.34;100.00;-20800.22;5075761;28;20303;-66
2021/04/16 05:45:38;;;;;;;0.70;0.60;;;3.60;99.90;;;4.38;100.00;-20801.19;5075894;28;20180;-67
2021/04/16 05:48:06;;;;;;;0.70;0.60;;;3.70;99.90;;;4.53;100.00;-20805.53;5075544;28;20549;-66
2021/04/16 05:50:33;;;;;;;0.70;0.70;;;3.80;99.90;;;4.74;100.00;-20811.22;5075216;28;20204;-66
2021/04/16 05:53:02;;;;;;;0.70;0.60;;;3.90;99.90;;;4.76;100.00;-20811.78;5076853;28;20200;-67
2021/04/16 05:55:30;;;;;;;3.55;2.25;;;4.00;99.90;;;5.08;100.00;-20820.41;5094557;28;20180;-66
2021/04/16 05:57:57;;;;;;;0.70;0.60;;;4.20;99.90;;;5.11;100.00;-20821.25;5081207;28;20223;-66
2021/04/16 06:00:27;;;;;;;0.70;0.60;;;4.30;99.90;;;5.27;100.00;-20825.72;5083150;28;20181;-66
2021/04/16 06:02:54;;;;;;;0.70;0.60;;;4.40;99.90;;;5.54;100.00;-20832.94;5084580;28;20184;-67
2021/04/16 06:05:23;;;;;;;0.75;0.70;;;4.50;99.90;;;5.69;100.00;-20837.13;5092753;28;20538;-66
2021/04/16 06:07:54;;;;;;;0.70;0.60;;;4.60;99.90;;;5.91;100.00;-20842.97;5074968;28;20189;-66
2021/04/16 06:10:22;;;;;;;0.70;0.60;;;4.70;99.90;;;6.03;100.00;-20846.31;5075122;28;20551;-67
2021/04/16 06:12:50;;;;;;;0.93;0.75;;;4.80;99.90;;;6.14;100.00;-20849.38;5083362;28;20212;-67
2021/04/16 06:15:21;;;;;;;0.70;0.60;;;4.80;99.90;;;6.15;100.00;-20849.66;5084619;28;20188;-67
2021/04/16 06:17:49;;;;;;;0.70;0.60;;;5.00;99.90;;;6.32;100.00;-20854.09;5082469;28;20190;-66
2021/04/16 06:20:20;;;;;;;0.70;0.60;;;5.10;99.90;;;6.36;100.00;-20855.22;5075106;28;20793;-66
2021/04/16 06:22:49;;;;;;;0.70;0.60;;;5.30;99.90;;;6.60;100.00;-20861.75;5085674;28;20261;-66
2021/04/16 06:25:25;;;;;;;0.70;0.50;;;5.30;99.90;;;6.80;100.00;-20867.16;5082758;28;21007;-68
2021/04/16 06:27:52;;;;;;;0.70;0.60;;;5.50;99.90;;;7.07;100.00;-20874.66;5082571;28;20612;-67
2021/04/16 06:30:21;;;;;;;0.70;0.60;;;5.50;99.90;;;6.86;100.00;-20868.97;5094157;28;20976;-66
2021/04/16 06:33:01;;;;;;;0.70;0.60;;;5.60;99.90;;;6.99;100.00;-20872.44;5088247;28;21004;-67
2021/04/16 06:35:29;;;;;;;0.70;0.60;;;5.60;99.90;;;7.24;100.00;-20879.38;5091182;28;20442;-66
2021/04/16 06:37:56;;;;;;;0.70;0.60;;;5.70;99.90;;;7.52;100.00;-20886.88;5094693;28;20518;-66
2021/04/16 06:40:24;;;;;;;1.03;0.93;;;5.70;99.90;;;7.67;100.00;-20891.03;5094776;28;20411;-67
2021/04/16 06:42:51;;;;;;;0.70;0.60;;;5.70;99.90;;;7.77;100.00;-20893.53;5090737;28;20454;-66
2021/04/16 06:45:26;;;;;;;0.70;0.60;;;5.70;99.90;;;7.48;100.00;-20885.78;5082296;28;20430;-67
2021/04/16 06:47:57;;;;;;;0.70;0.60;;;5.90;99.90;;;7.65;100.00;-20890.34;5092776;28;20441;-67
2021/04/16 06:50:29;;;;;;;0.70;0.50;;;6.10;99.90;;;7.63;100.00;-20889.94;5094044;28;20458;-66
2021/04/16 06:53:05;;;;;;;0.70;0.60;;;6.20;99.90;;;7.99;100.00;-20899.66;5084544;28;20438;-67
2021/04/16 06:55:42;;;;;;;1.17;1.00;;;6.40;99.90;;;8.23;100.00;-20906.31;5093305;28;20426;-67
2021/04/16 06:58:16;;;;;;;0.70;0.60;;;6.50;99.90;;;7.90;100.00;-20897.16;5090327;28;20607;-67
2021/04/16 07:00:49;;;;;;;0.70;0.60;;;6.50;99.90;;;7.81;100.00;-20894.78;5087658;28;20426;-66
2021/04/16 07:03:24;;;;;;;0.70;0.60;;;6.70;99.90;;;7.96;100.00;-20898.97;5079918;28;20442;-67
2021/04/16 07:05:54;;;;;;;0.80;0.70;;;7.00;99.90;;;8.14;100.00;-20903.81;5073904;28;20491;-66
2021/04/16 07:08:33;;;;;;;0.70;0.60;;;7.10;99.90;;;8.41;100.00;-20911.03;5077931;28;20841;-67
2021/04/16 07:11:10;;;;;;;0.70;0.60;;;7.20;99.90;;;8.26;100.00;-20906.88;5079468;28;20979;-67
2021/04/16 07:13:39;;;;;;;0.70;0.60;;;7.20;97.00;;;8.26;100.00;-20906.88;5083941;28;21055;-67
2021/04/16 07:16:08;;;;;;;0.80;0.63;;;7.30;96.40;;;8.36;100.00;-20909.63;5090035;28;20811;-66
2021/04/16 07:18:40;;;;;;;0.70;0.60;;;7.30;95.30;;;8.51;100.00;-20913.81;5075828;28;20825;-66
2021/04/16 07:21:09;;;;;;;0.70;0.60;;;7.50;96.10;;;8.70;100.00;-20919.06;5078233;28;20873;-68
2021/04/16 07:23:47;;;;;;;0.70;0.60;;;7.70;93.50;;;8.76;100.00;-20920.59;5089074;28;20527;-66
2021/04/16 07:26:41;;;;;;;0.70;0.60;;;7.70;92.70;;;8.93;100.00;-20925.16;5078660;28;20547;-66
2021/04/16 07:29:15;;;;;;;0.70;0.60;;;7.80;92.80;;;9.07;100.00;-20929.06;5083787;28;20499;-66
2021/04/16 07:31:49;;;;;;;0.70;0.60;;;7.80;90.00;;;9.50;100.00;-20940.69;5074192;28;20440;-66
2021/04/16 07:34:33;;;;;;;0.70;0.60;;;7.80;89.60;;;9.10;100.00;-20929.88;5083890;28;20451;-67
2021/04/16 07:37:13;;;;;;;0.70;0.60;;;7.90;89.00;;;8.97;100.00;-20926.28;5076787;28;20537;-67
2021/04/16 07:39:59;;;;;;;1.37;1.27;;;7.80;87.00;;;8.95;100.00;-20925.88;5082376;28;20423;-67
2021/04/16 07:42:39;;;;;;;0.70;0.60;;;7.70;83.80;;;9.24;100.00;-20933.63;5074896;28;20464;-67
2021/04/16 07:45:17;;;;;;;0.70;0.60;;;7.90;82.70;;;9.53;100.00;-20941.53;5086489;28;20949;-65
2021/04/16 07:47:47;;;;;;;0.70;0.60;;;8.00;83.10;;;10.27;100.00;-20961.47;5084750;28;20425;-67
2021/04/16 07:50:28;;;;;;;0.70;0.57;;;7.90;81.20;;;10.36;100.00;-20964.09;5073322;28;20789;-67
2021/04/16 07:52:56;;;;;;;0.70;0.70;;;8.00;82.00;;;10.05;100.00;-20955.50;5088042;28;20446;-67
2021/04/16 07:55:26;;;;;;;0.70;0.60;;;8.10;81.10;;;10.24;100.00;-20960.63;5086365;28;20423;-66
2021/04/16 07:58:08;;;;;;;0.80;0.80;;;8.20;81.90;;;9.65;100.00;-20944.72;5078477;28;20468;-66
2021/04/16 08:00:39;;;;;;;0.70;0.60;;;8.40;81.00;;;9.68;100.00;-20945.69;5088804;28;20434;-67
2021/04/16 08:03:14;;;;;;;0.70;0.50;;;8.50;81.40;;;9.98;100.00;-20953.72;5092058;28;21003;-67
2021/04/16 08:05:46;;;;;;;0.70;0.60;;;8.70;78.50;;;9.82;100.00;-20949.28;5090520;28;20489;-67
2021/04/16 08:08:25;;;;;;;2.20;1.07;;;8.70;78.00;;;10.50;100.00;-20967.81;5072931;28;20425;-67
2021/04/16 08:11:10;;;;;;;0.70;0.60;;;8.50;76.50;;;10.90;100.00;-20978.63;5073552;28;20513;-67
2021/04/16 08:13:51;;;;;;;0.70;0.60;;;8.60;77.10;;;10.20;100.00;-20959.66;5073020;28;20515;-67
2021/04/16 08:16:23;;;;;;;0.70;0.60;;;8.80;77.40;;;9.84;100.00;-20949.81;5081947;28;20422;-68
2021/04/16 08:19:24;;;;;;;0.70;0.60;;;8.80;79.20;;;11.16;100.00;-20985.66;5086383;28;20427;-67
2021/04/16 08:21:57;;;;;;;0.70;0.70;;;8.70;76.80;;;11.25;100.00;-20988.00;5085947;28;20933;-65
2021/04/16 08:24:48;;;;;;;0.97;0.80;;;8.50;75.50;;;11.18;100.00;-20986.06;5092001;28;20417;-65
2021/04/16 08:27:33;;;;;;;0.70;0.60;;;8.50;75.90;;;10.94;100.00;-20979.72;5073057;28;20439;-66
2021/04/16 08:30:09;;;;;;;0.70;0.63;;;8.60;74.40;;;10.64;100.00;-20971.69;5082722;28;20463;-69
2021/04/16 08:32:44;;;;;;;0.70;0.70;;;8.80;76.90;;;10.73;100.00;-20973.91;5082420;28;20417;-66
2021/04/16 08:35:35;;;;;;;1.00;0.90;;;8.90;73.30;;;11.22;100.00;-20987.19;5072861;28;20484;-66
2021/04/16 08:38:10;;;;;;;1.03;0.93;;;8.80;73.70;;;11.63;100.00;-20998.25;5074678;28;20453;-66
2021/04/16 08:40:44;;;;;;;0.70;0.60;;;8.70;71.60;;;11.52;100.00;-20995.34;5082521;28;20496;-66
2021/04/16 08:43:20;;;;;;;0.70;0.60;;;8.80;72.30;;;11.51;100.00;-20995.06;5082704;28;20456;-66
2021/04/16 08:45:47;;;;;;;0.70;0.70;;;8.90;71.70;;;10.99;100.00;-20981.09;5083178;28;20442;-66
2021/04/16 08:48:22;;;;;;;0.70;0.60;;;9.00;69.60;;;11.39;100.00;-20991.88;5082293;28;20442;-66
2021/04/16 08:50:56;;;;;;;0.70;0.60;;;8.90;65.60;;;11.50;100.00;-20994.78;5080345;28;20982;-65
2021/04/16 08:53:23;;;;;;;0.70;0.60;;;9.10;68.10;;;11.01;100.00;-20981.66;5084948;28;20448;-65
2021/04/16 08:55:52;;;;;;;0.70;0.60;;;9.20;69.10;;;11.73;100.00;-21001.13;5072753;28;20430;-66
2021/04/16 08:58:28;;;;;;;0.80;0.70;;;9.40;65.30;;;11.95;100.00;-21006.94;5079134;28;20573;-65
2021/04/16 09:00:59;;;;;;;0.70;0.60;;;9.50;66.40;;;12.08;100.00;-21010.69;5072411;28;20740;-65
2021/04/16 09:03:40;;;;;;;0.70;0.63;;;9.30;64.10;;;11.84;100.00;-21004.03;5083355;28;20422;-68
2021/04/16 09:06:44;;;;;;;0.70;0.63;;;9.30;62.50;;;11.47;100.00;-20994.09;5079880;28;20441;-68
2021/04/16 09:09:34;;;;;;;0.80;0.70;;;9.40;64.10;;;11.94;100.00;-21006.66;5091063;28;20545;-68
2021/04/16 09:12:01;;;;;;;0.83;0.83;;;9.60;63.00;;;12.08;100.00;-21010.69;5091727;28;20854;-68
2021/04/16 09:14:52;;;;;;;0.70;0.70;;;9.50;60.00;;;11.79;100.00;-21002.66;5082855;28;20444;-68
2021/04/16 09:17:20;;;;;;;0.77;0.60;;;9.70;63.10;;;12.46;100.00;-21020.88;5076087;28;20490;-67
2021/04/16 09:20:00;;;;;;;0.70;0.60;;;10.30;58.10;;;12.13;100.00;-21011.91;5094624;28;20459;-66
2021/04/16 09:22:42;;;;;;;0.80;0.80;;;10.50;59.10;;;12.38;100.00;-21018.69;5095432;28;20479;-66
2021/04/16 09:25:44;;;;;;;0.80;0.70;;;10.40;56.60;;;12.68;100.00;-21026.81;5091394;28;20497;-68
2021/04/16 09:28:56;;;;;;;0.80;0.70;;;10.50;52.80;;;13.05;100.00;-21036.88;5075659;28;20596;-66
2021/04/16 09:31:55;;;;;;;0.70;0.60;;;10.50;53.80;;;13.00;100.00;-21035.38;5075732;28;20510;-66
2021/04/16 09:34:26;;;;;;;0.70;0.70;;;10.40;52.00;;;12.65;100.00;-21026.00;5083098;28;20834;-68
2021/04/16 09:37:25;;;;;;;0.70;0.70;;;10.40;52.30;;;11.65;100.00;-20998.78;5084569;28;20917;-68
2021/04/16 09:40:32;;;;;;;1.63;1.03;;;10.50;54.30;;;11.52;100.00;-20995.47;5090289;28;20432;-66
2021/04/16 09:43:21;;;;;;;0.80;0.70;;;10.30;47.00;;;11.55;100.00;-20996.31;5088075;28;20449;-66
2021/04/16 09:45:51;;;;;;;0.70;0.60;;;10.30;45.00;;;11.71;100.00;-21000.44;5077643;28;20439;-68
2021/04/16 09:48:45;;;;;;;0.70;0.67;;;10.60;41.30;;;12.02;100.00;-21008.88;5094519;28;20442;-66
2021/04/16 09:51:36;;;;;;;0.70;0.60;;;10.50;38.80;;;11.53;100.00;-20995.63;5094625;28;20524;-67
2021/04/16 09:54:38;;;;;;;0.70;0.60;;;10.50;37.20;;;12.36;100.00;-21018.00;5093534;28;20469;-66
2021/04/16 09:57:40;;;;;;;0.70;0.60;;;10.80;35.90;;;13.12;100.00;-21038.53;5052966;28;20481;-68
2021/04/16 10:00:56;;;;;;;0.70;0.60;;;11.20;34.20;;;12.66;100.00;-21026.13;5084109;28;20418;-66
2021/04/16 10:03:39;;;;;;;0.70;0.67;;;11.50;36.00;;;13.12;100.00;-21038.53;5080452;28;20536;-66
2021/04/16 10:06:27;;;;;;;0.80;0.70;;;11.70;34.80;;;12.75;100.00;-21028.75;5074801;28;20444;-66
2021/04/16 10:09:25;;;;;;;1.67;0.90;;;11.40;32.20;;;13.02;100.00;-21036.06;5074549;28;20441;-66
2021/04/16 10:11:57;;;;;;;0.70;0.60;;;11.30;34.20;;;13.08;100.00;-21037.44;5075517;28;20459;-66
2021/04/16 10:14:33;;;;;;;1.00;0.97;;;11.50;34.20;;;12.64;100.00;-21025.59;5076652;28;21228;-67
2021/04/16 10:17:04;;;;;;;0.70;0.60;;;11.40;31.90;;;12.70;100.00;-21027.22;5090946;28;20548;-68
2021/04/16 10:19:35;;;;;;;0.70;0.60;;;11.10;29.50;;;12.55;100.00;-21023.22;5080465;28;20435;-68
2021/04/16 10:22:11;;;;;;;0.70;0.60;;;11.20;29.60;;;12.81;100.00;-21030.41;5088732;28;20449;-67
2021/04/16 12:41:08;;;;;;;0.70;0.60;;;12.90;3.60;;;14.84;81.19;-21085.13;5084127;28;20427;-66
2021/04/16 12:43:36;;;;;;;0.73;0.70;;;13.10;3.40;;;15.49;79.60;-21102.44;5084079;28;20450;-67
2021/04/16 12:46:09;;;;;;;0.70;0.60;;;13.80;2.50;;;16.40;81.00;-21127.03;5090803;28;20932;-67
2021/04/16 12:48:36;;;;;;;0.70;0.60;;;15.00;4.00;;;17.20;78.90;-21148.59;5083449;28;20987;-67
2021/04/16 12:51:04;;;;;;;0.80;0.70;;;15.50;3.00;;;17.56;74.75;-21158.19;5079005;28;20460;-67
2021/04/16 12:53:31;;;;;;;0.70;0.60;;;15.90;1.00;;;17.75;75.50;-21163.25;5084427;28;20475;-69
2021/04/16 12:55:59;;;;;;;0.80;0.77;;;16.20;1.00;;;17.84;74.99;-21165.88;5076603;28;20813;-67